sensor_id;sensor_type;location;lat;lon;timestamp;pressure;altitude;pressure_sealevel;temperature;humidity
57668;BME280;43499;52.366;12.912;2023-09-08T00:00:06;101864.03;;;19.10;71.93
57668;BME280;43499;52.366;12.912;2023-09-08T00:01:10;101859.63;;;19.10;71.93
57668;BME280;43499;52.366;12.912;2023-09-08T00:02:11;101859.63;;;19.10;72.51
57668;BME280;43499;52.366;12.912;2023-09-08T00:03:12;101851.34;;;19.06;71.88
57668;BME280;43499;52.366;12.912;2023-09-08T00:04:13;101857.50;;;19.05;71.84
57668;BME280;43499;52.366;12.912;2023-09-08T00:05:15;101854.81;;;19.05;71.70
57668;BME280;43499;52.366;12.912;2023-09-08T00:06:16;101860.97;;;19.04;72.06
57668;BME280;43499;52.366;12.912;2023-09-08T00:07:20;101855.66;;;19.04;72.05
57668;BME280;43499;52.366;12.912;2023-09-08T00:08:21;101853.78;;;19.03;72.23
57668;BME280;43499;52.366;12.912;2023-09-08T00:09:24;101854.63;;;19.02;72.00
57668;BME280;43499;52.366;12.912;2023-09-08T00:10:26;101861.06;;;19.05;71.77
57668;BME280;43499;52.366;12.912;2023-09-08T00:11:27;101852.16;;;19.05;72.10
57668;BME280;43499;52.366;12.912;2023-09-08T00:12:28;101850.22;;;19.02;71.99
57668;BME280;43499;52.366;12.912;2023-09-08T00:13:29;101856.47;;;19.03;72.43
57668;BME280;43499;52.366;12.912;2023-09-08T00:14:30;101858.75;;;18.96;72.62
57668;BME280;43499;52.366;12.912;2023-09-08T00:15:33;101857.72;;;18.94;72.75
57668;BME280;43499;52.366;12.912;2023-09-08T00:16:35;101857.25;;;18.88;73.01
57668;BME280;43499;52.366;12.912;2023-09-08T00:17:38;101856.47;;;18.76;73.56
57668;BME280;43499;52.366;12.912;2023-09-08T00:18:40;101863.53;;;18.75;74.25
57668;BME280;43499;52.366;12.912;2023-09-08T00:19:41;101861.78;;;18.76;73.88
57668;BME280;43499;52.366;12.912;2023-09-08T00:20:42;101855.47;;;18.74;74.26
57668;BME280;43499;52.366;12.912;2023-09-08T00:21:43;101859.25;;;18.77;74.15
57668;BME280;43499;52.366;12.912;2023-09-08T00:22:44;101854.00;;;18.79;73.88
57668;BME280;43499;52.366;12.912;2023-09-08T00:23:45;101858.31;;;18.77;74.62
57668;BME280;43499;52.366;12.912;2023-09-08T00:24:46;101858.72;;;18.70;74.78
57668;BME280;43499;52.366;12.912;2023-09-08T00:25:49;101847.69;;;18.63;75.30
57668;BME280;43499;52.366;12.912;2023-09-08T00:26:50;101848.19;;;18.58;75.48
57668;BME280;43499;52.366;12.912;2023-09-08T00:27:51;101852.59;;;18.57;75.52
57668;BME280;43499;52.366;12.912;2023-09-08T00:28:52;101849.72;;;18.54;75.63
57668;BME280;43499;52.366;12.912;2023-09-08T00:29:53;101847.25;;;18.57;75.30
57668;BME280;43499;52.366;12.912;2023-09-08T00:30:54;101838.53;;;18.60;75.47
57668;BME280;43499;52.366;12.912;2023-09-08T00:31:55;101845.53;;;18.58;75.81
57668;BME280;43499;52.366;12.912;2023-09-08T00:32:56;101847.25;;;18.57;76.03
57668;BME280;43499;52.366;12.912;2023-09-08T00:33:57;101846.75;;;18.63;75.69
57668;BME280;43499;52.366;12.912;2023-09-08T00:34:58;101847.78;;;18.65;75.71
57668;BME280;43499;52.366;12.912;2023-09-08T00:35:59;101840.00;;;18.68;75.46
57668;BME280;43499;52.366;12.912;2023-09-08T00:37:01;101846.03;;;18.65;75.90
57668;BME280;43499;52.366;12.912;2023-09-08T00:38:07;101840.69;;;18.65;75.95
57668;BME280;43499;52.366;12.912;2023-09-08T00:39:09;101844.28;;;18.66;76.40
57668;BME280;43499;52.366;12.912;2023-09-08T00:40:10;101841.72;;;18.68;76.40
57668;BME280;43499;52.366;12.912;2023-09-08T00:41:11;101844.59;;;18.71;76.78
57668;BME280;43499;52.366;12.912;2023-09-08T00:42:12;101835.66;;;18.70;76.54
57668;BME280;43499;52.366;12.912;2023-09-08T00:43:13;101830.25;;;18.69;76.80
57668;BME280;43499;52.366;12.912;2023-09-08T00:44:14;101847.25;;;18.71;76.83
57668;BME280;43499;52.366;12.912;2023-09-08T00:45:16;101842.03;;;18.72;76.52
57668;BME280;43499;52.366;12.912;2023-09-08T00:46:17;101842.16;;;18.74;76.47
57668;BME280;43499;52.366;12.912;2023-09-08T00:47:18;101840.38;;;18.74;75.96
57668;BME280;43499;52.366;12.912;2023-09-08T00:48:20;101840.28;;;18.73;76.10
57668;BME280;43499;52.366;12.912;2023-09-08T00:49:21;101842.03;;;18.72;75.99
57668;BME280;43499;52.366;12.912;2023-09-08T00:50:22;101839.34;;;18.72;75.63
57668;BME280;43499;52.366;12.912;2023-09-08T00:51:23;101840.16;;;18.71;76.18
57668;BME280;43499;52.366;12.912;2023-09-08T00:52:24;101848.16;;;18.71;76.05
57668;BME280;43499;52.366;12.912;2023-09-08T00:53:26;101837.41;;;18.70;76.02
57668;BME280;43499;52.366;12.912;2023-09-08T00:54:29;101841.84;;;18.69;76.12
57668;BME280;43499;52.366;12.912;2023-09-08T00:55:32;101848.81;;;18.67;75.38
57668;BME280;43499;52.366;12.912;2023-09-08T00:56:34;101846.13;;;18.67;75.40
57668;BME280;43499;52.366;12.912;2023-09-08T00:57:37;101842.53;;;18.66;75.28
57668;BME280;43499;52.366;12.912;2023-09-08T00:58:39;101836.91;;;18.62;75.35
57668;BME280;43499;52.366;12.912;2023-09-08T00:59:40;101842.88;;;18.58;75.51
57668;BME280;43499;52.366;12.912;2023-09-08T01:00:41;101835.41;;;18.52;75.54
57668;BME280;43499;52.366;12.912;2023-09-08T01:01:42;101832.75;;;18.52;75.40
57668;BME280;43499;52.366;12.912;2023-09-08T01:02:43;101838.53;;;18.46;75.97
57668;BME280;43499;52.366;12.912;2023-09-08T01:03:46;101831.78;;;18.38;76.15
57668;BME280;43499;52.366;12.912;2023-09-08T01:04:47;101833.41;;;18.36;76.44
57668;BME280;43499;52.366;12.912;2023-09-08T01:05:48;101837.25;;;18.40;76.22
57668;BME280;43499;52.366;12.912;2023-09-08T01:06:50;101837.84;;;18.35;76.71
57668;BME280;43499;52.366;12.912;2023-09-08T01:07:52;101837.84;;;18.35;76.88
57668;BME280;43499;52.366;12.912;2023-09-08T01:08:54;101836.41;;;18.27;77.45
57668;BME280;43499;52.366;12.912;2023-09-08T01:09:56;101846.63;;;18.21;78.02
57668;BME280;43499;52.366;12.912;2023-09-08T01:10:57;101840.09;;;18.16;79.13
57668;BME280;43499;52.366;12.912;2023-09-08T01:11:59;101839.28;;;18.17;79.27
57668;BME280;43499;52.366;12.912;2023-09-08T01:13:04;101839.34;;;18.18;78.80
57668;BME280;43499;52.366;12.912;2023-09-08T01:14:05;101839.75;;;18.25;78.71
57668;BME280;43499;52.366;12.912;2023-09-08T01:15:06;101848.56;;;18.24;79.17
57668;BME280;43499;52.366;12.912;2023-09-08T01:16:07;101836.28;;;18.26;78.21
57668;BME280;43499;52.366;12.912;2023-09-08T01:17:08;101841.00;;;18.30;78.66
57668;BME280;43499;52.366;12.912;2023-09-08T01:18:10;101835.78;;;18.31;78.22
57668;BME280;43499;52.366;12.912;2023-09-08T01:19:13;101833.94;;;18.30;78.28
57668;BME280;43499;52.366;12.912;2023-09-08T01:20:18;101836.91;;;18.35;78.18
57668;BME280;43499;52.366;12.912;2023-09-08T01:24:11;101835.69;;;18.30;77.94
57668;BME280;43499;52.366;12.912;2023-09-08T01:25:24;101830.44;;;18.31;78.11
57668;BME280;43499;52.366;12.912;2023-09-08T01:26:30;101840.06;;;18.29;78.37
57668;BME280;43499;52.366;12.912;2023-09-08T01:27:35;101836.50;;;18.29;78.34
57668;BME280;43499;52.366;12.912;2023-09-08T01:28:39;101833.94;;;18.30;77.65
57668;BME280;43499;52.366;12.912;2023-09-08T01:29:41;101836.41;;;18.27;77.90
57668;BME280;43499;52.366;12.912;2023-09-08T01:30:42;101832.94;;;18.28;78.43
57668;BME280;43499;52.366;12.912;2023-09-08T01:31:43;101824.09;;;18.29;78.05
57668;BME280;43499;52.366;12.912;2023-09-08T01:32:45;101835.09;;;18.34;77.41
57668;BME280;43499;52.366;12.912;2023-09-08T01:33:46;101835.69;;;18.30;77.15
57668;BME280;43499;52.366;12.912;2023-09-08T01:34:48;101829.41;;;18.29;76.83
57668;BME280;43499;52.366;12.912;2023-09-08T01:35:49;101833.13;;;18.31;77.18
57668;BME280;43499;52.366;12.912;2023-09-08T01:36:51;101835.78;;;18.31;77.62
57668;BME280;43499;52.366;12.912;2023-09-08T01:37:52;101830.44;;;18.31;77.13
57668;BME280;43499;52.366;12.912;2023-09-08T01:38:53;101832.31;;;18.32;76.82
57668;BME280;43499;52.366;12.912;2023-09-08T01:39:54;101833.03;;;18.30;77.40
57668;BME280;43499;52.366;12.912;2023-09-08T01:40:55;101836.50;;;18.29;77.21
57668;BME280;43499;52.366;12.912;2023-09-08T01:41:57;101829.25;;;18.26;77.23
57668;BME280;43499;52.366;12.912;2023-09-08T01:42:58;101832.81;;;18.27;77.03
57668;BME280;43499;52.366;12.912;2023-09-08T01:44:00;101828.22;;;18.24;76.91
57668;BME280;43499;52.366;12.912;2023-09-08T01:45:02;101829.03;;;18.23;77.30
57668;BME280;43499;52.366;12.912;2023-09-08T01:46:03;101832.50;;;18.22;77.29
57668;BME280;43499;52.366;12.912;2023-09-08T01:47:04;101829.63;;;18.19;77.39
57668;BME280;43499;52.366;12.912;2023-09-08T01:48:05;101826.88;;;18.17;77.74
57668;BME280;43499;52.366;12.912;2023-09-08T01:49:06;101832.28;;;18.19;77.16
57668;BME280;43499;52.366;12.912;2023-09-08T01:50:08;101827.78;;;18.18;77.52
57668;BME280;43499;52.366;12.912;2023-09-08T01:51:10;101830.13;;;18.13;77.98
57668;BME280;43499;52.366;12.912;2023-09-08T01:52:11;101824.63;;;18.10;77.50
57668;BME280;43499;52.366;12.912;2023-09-08T01:53:13;101826.34;;;18.10;77.55
57668;BME280;43499;52.366;12.912;2023-09-08T01:54:14;101819.31;;;18.10;78.19
57668;BME280;43499;52.366;12.912;2023-09-08T01:55:15;101812.81;;;18.07;77.99
57668;BME280;43499;52.366;12.912;2023-09-08T01:56:17;101819.06;;;18.07;78.38
57668;BME280;43499;52.366;12.912;2023-09-08T01:57:19;101818.88;;;18.04;78.64
57668;BME280;43499;52.366;12.912;2023-09-08T01:58:20;101816.91;;;18.01;78.55
57668;BME280;43499;52.366;12.912;2023-09-08T01:59:21;101804.53;;;18.02;79.12
57668;BME280;43499;52.366;12.912;2023-09-08T02:00:22;101807.41;;;18.05;78.83
57668;BME280;43499;52.366;12.912;2023-09-08T02:01:24;101809.16;;;18.04;79.23
57668;BME280;43499;52.366;12.912;2023-09-08T02:02:25;101815.97;;;18.01;79.49
57668;BME280;43499;52.366;12.912;2023-09-08T02:03:26;101806.06;;;17.98;79.77
57668;BME280;43499;52.366;12.912;2023-09-08T02:04:28;101814.97;;;17.99;79.89
57668;BME280;43499;52.366;12.912;2023-09-08T02:05:29;101817.53;;;17.97;80.33
57668;BME280;43499;52.366;12.912;2023-09-08T02:06:31;101816.44;;;17.95;80.57
57668;BME280;43499;52.366;12.912;2023-09-08T02:07:32;101810.13;;;17.93;79.99
57668;BME280;43499;52.366;12.912;2023-09-08T02:08:33;101810.94;;;17.92;80.53
57668;BME280;43499;52.366;12.912;2023-09-08T02:09:36;101815.44;;;17.93;80.43
57668;BME280;43499;52.366;12.912;2023-09-08T02:10:39;101810.00;;;17.92;80.05
57668;BME280;43499;52.366;12.912;2023-09-08T02:11:41;101807.25;;;17.90;80.44
57668;BME280;43499;52.366;12.912;2023-09-08T02:12:43;101801.63;;;17.85;81.25
57668;BME280;43499;52.366;12.912;2023-09-08T02:13:44;101812.25;;;17.85;80.91
57668;BME280;43499;52.366;12.912;2023-09-08T02:14:46;101809.47;;;17.84;81.16
57668;BME280;43499;52.366;12.912;2023-09-08T02:15:48;101797.84;;;17.82;81.57
57668;BME280;43499;52.366;12.912;2023-09-08T02:16:49;101795.84;;;17.79;80.65
57668;BME280;43499;52.366;12.912;2023-09-08T02:17:53;101804.06;;;17.82;80.77
57668;BME280;43499;52.366;12.912;2023-09-08T02:18:55;101797.63;;;17.79;81.39
57668;BME280;43499;52.366;12.912;2023-09-08T02:19:56;101808.34;;;17.80;80.95
57668;BME280;43499;52.366;12.912;2023-09-08T02:20:57;101805.38;;;17.76;81.58
57668;BME280;43499;52.366;12.912;2023-09-08T02:21:59;101804.34;;;17.73;81.40
57668;BME280;43499;52.366;12.912;2023-09-08T02:23:04;101802.63;;;17.74;81.46
57668;BME280;43499;52.366;12.912;2023-09-08T02:24:07;101802.50;;;17.72;81.29
57668;BME280;43499;52.366;12.912;2023-09-08T02:25:08;101804.47;;;17.75;81.45
57668;BME280;43499;52.366;12.912;2023-09-08T02:26:09;101803.44;;;17.73;81.82
57668;BME280;43499;52.366;12.912;2023-09-08T02:27:12;101798.19;;;17.74;81.39
57668;BME280;43499;52.366;12.912;2023-09-08T02:28:14;101798.00;;;17.71;81.53
57668;BME280;43499;52.366;12.912;2023-09-08T02:29:15;101799.63;;;17.69;81.92
57668;BME280;43499;52.366;12.912;2023-09-08T02:30:16;101797.66;;;17.67;82.13
57668;BME280;43499;52.366;12.912;2023-09-08T02:31:18;101802.06;;;17.66;81.68
57668;BME280;43499;52.366;12.912;2023-09-08T02:32:19;101791.34;;;17.65;81.54
57668;BME280;43499;52.366;12.912;2023-09-08T02:33:20;101800.13;;;17.64;82.48
57668;BME280;43499;52.366;12.912;2023-09-08T02:34:22;101799.19;;;17.63;82.96
57668;BME280;43499;52.366;12.912;2023-09-08T02:35:23;101796.53;;;17.63;82.34
57668;BME280;43499;52.366;12.912;2023-09-08T02:36:26;101800.00;;;17.62;82.55
57668;BME280;43499;52.366;12.912;2023-09-08T02:37:29;101795.31;;;17.58;82.45
57668;BME280;43499;52.366;12.912;2023-09-08T02:38:30;101794.38;;;17.57;82.71
57668;BME280;43499;52.366;12.912;2023-09-08T02:39:32;101799.38;;;17.53;83.54
57668;BME280;43499;52.366;12.912;2023-09-08T02:40:33;101801.31;;;17.55;83.18
57668;BME280;43499;52.366;12.912;2023-09-08T02:41:35;101801.31;;;17.55;83.33
57668;BME280;43499;52.366;12.912;2023-09-08T02:42:37;101801.31;;;17.55;83.31
57668;BME280;43499;52.366;12.912;2023-09-08T02:43:38;101795.81;;;17.52;83.74
57668;BME280;43499;52.366;12.912;2023-09-08T02:44:39;101791.16;;;17.50;83.40
57668;BME280;43499;52.366;12.912;2023-09-08T02:45:41;101794.88;;;17.52;83.88
57668;BME280;43499;52.366;12.912;2023-09-08T02:46:43;101794.44;;;17.46;83.80
57668;BME280;43499;52.366;12.912;2023-09-08T02:47:45;101791.06;;;17.48;83.79
57668;BME280;43499;52.366;12.912;2023-09-08T02:48:46;101794.44;;;17.46;84.45
57668;BME280;43499;52.366;12.912;2023-09-08T02:49:47;101792.69;;;17.46;83.82
57668;BME280;43499;52.366;12.912;2023-09-08T02:50:48;101787.06;;;17.41;84.43
57668;BME280;43499;52.366;12.912;2023-09-08T02:51:50;101794.31;;;17.44;85.20
57668;BME280;43499;52.366;12.912;2023-09-08T02:52:51;101788.91;;;17.42;84.66
57668;BME280;43499;52.366;12.912;2023-09-08T02:53:53;101791.56;;;17.42;84.21
57668;BME280;43499;52.366;12.912;2023-09-08T02:54:54;101797.59;;;17.40;85.05
57668;BME280;43499;52.366;12.912;2023-09-08T02:55:56;101791.34;;;17.39;85.29
57668;BME280;43499;52.366;12.912;2023-09-08T02:56:58;101788.81;;;17.41;85.14
57668;BME280;43499;52.366;12.912;2023-09-08T02:57:59;101787.66;;;17.37;85.05
57668;BME280;43499;52.366;12.912;2023-09-08T02:59:02;101796.66;;;17.39;85.17
57668;BME280;43499;52.366;12.912;2023-09-08T03:00:04;101784.19;;;17.38;84.51
57668;BME280;43499;52.366;12.912;2023-09-08T03:01:16;101784.81;;;17.34;85.26
57668;BME280;43499;52.366;12.912;2023-09-08T03:02:21;101781.59;;;17.26;85.00
57668;BME280;43499;52.366;12.912;2023-09-08T03:03:22;101789.66;;;17.28;85.29
57668;BME280;43499;52.366;12.912;2023-09-08T03:04:25;101776.88;;;17.22;85.65
57668;BME280;43499;52.366;12.912;2023-09-08T03:05:26;101788.31;;;17.21;85.74
57668;BME280;43499;52.366;12.912;2023-09-08T03:06:27;101784.75;;;17.21;86.02
57668;BME280;43499;52.366;12.912;2023-09-08T03:07:29;101784.41;;;17.16;85.56
57668;BME280;43499;52.366;12.912;2023-09-08T03:08:31;101782.66;;;17.17;86.80
57668;BME280;43499;52.366;12.912;2023-09-08T03:09:33;101782.78;;;17.18;86.75
57668;BME280;43499;52.366;12.912;2023-09-08T03:10:35;101781.97;;;17.19;86.35
57668;BME280;43499;52.366;12.912;2023-09-08T03:11:38;101778.28;;;17.17;86.37
57668;BME280;43499;52.366;12.912;2023-09-08T03:12:39;101777.84;;;17.11;86.12
57668;BME280;43499;52.366;12.912;2023-09-08T03:13:40;101784.09;;;17.11;86.76
57668;BME280;43499;52.366;12.912;2023-09-08T03:14:42;101778.78;;;17.11;86.20
57668;BME280;43499;52.366;12.912;2023-09-08T03:15:43;101778.88;;;17.13;86.16
57668;BME280;43499;52.366;12.912;2023-09-08T03:16:45;101786.94;;;17.15;86.83
57668;BME280;43499;52.366;12.912;2023-09-08T03:17:46;101783.47;;;17.16;86.07
57668;BME280;43499;52.366;12.912;2023-09-08T03:18:48;101784.28;;;17.15;85.99
57668;BME280;43499;52.366;12.912;2023-09-08T03:19:49;101782.09;;;17.09;86.13
57668;BME280;43499;52.366;12.912;2023-09-08T03:20:51;101783.16;;;17.11;86.62
57668;BME280;43499;52.366;12.912;2023-09-08T03:21:52;101781.78;;;17.04;87.09
57668;BME280;43499;52.366;12.912;2023-09-08T03:22:53;101784.09;;;17.00;87.41
57668;BME280;43499;52.366;12.912;2023-09-08T03:23:55;101780.66;;;17.01;87.58
57668;BME280;43499;52.366;12.912;2023-09-08T03:24:56;101787.00;;;17.03;87.63
57668;BME280;43499;52.366;12.912;2023-09-08T03:25:57;101779.94;;;17.03;87.19
57668;BME280;43499;52.366;12.912;2023-09-08T03:27:00;101776.28;;;17.01;87.60
57668;BME280;43499;52.366;12.912;2023-09-08T03:28:03;101773.38;;;16.98;87.71
57668;BME280;43499;52.366;12.912;2023-09-08T03:29:06;101786.75;;;17.00;87.63
57668;BME280;43499;52.366;12.912;2023-09-08T03:30:07;101783.19;;;16.99;87.81
57668;BME280;43499;52.366;12.912;2023-09-08T03:31:08;101790.13;;;16.97;87.68
57668;BME280;43499;52.366;12.912;2023-09-08T03:32:10;101790.38;;;17.00;88.04
57668;BME280;43499;52.366;12.912;2023-09-08T03:33:13;101780.41;;;16.98;88.23
57668;BME280;43499;52.366;12.912;2023-09-08T03:34:14;101788.28;;;16.96;87.89
57668;BME280;43499;52.366;12.912;2023-09-08T03:35:16;101779.94;;;16.91;88.12
57668;BME280;43499;52.366;12.912;2023-09-08T03:36:17;101783.41;;;16.90;88.10
57668;BME280;43499;52.366;12.912;2023-09-08T03:37:19;101793.22;;;16.91;88.64
57668;BME280;43499;52.366;12.912;2023-09-08T03:38:20;101787.69;;;16.88;88.63
57668;BME280;43499;52.366;12.912;2023-09-08T03:39:22;101800.88;;;16.87;88.70
57668;BME280;43499;52.366;12.912;2023-09-08T03:40:23;101785.66;;;16.84;88.54
57668;BME280;43499;52.366;12.912;2023-09-08T03:41:25;101784.59;;;16.82;88.21
57668;BME280;43499;52.366;12.912;2023-09-08T03:42:26;101790.72;;;16.81;88.46
57668;BME280;43499;52.366;12.912;2023-09-08T03:43:27;101795.47;;;16.85;89.21
57668;BME280;43499;52.366;12.912;2023-09-08T03:44:29;101793.72;;;16.86;88.54
57668;BME280;43499;52.366;12.912;2023-09-08T03:45:30;101792.09;;;16.88;88.80
57668;BME280;43499;52.366;12.912;2023-09-08T03:46:32;101786.66;;;16.86;88.86
57668;BME280;43499;52.366;12.912;2023-09-08T03:47:33;101788.50;;;16.87;89.10
57668;BME280;43499;52.366;12.912;2023-09-08T03:48:34;101785.84;;;16.87;88.93
57668;BME280;43499;52.366;12.912;2023-09-08T03:49:35;101788.63;;;16.89;88.97
57668;BME280;43499;52.366;12.912;2023-09-08T03:50:37;101791.38;;;16.90;88.50
57668;BME280;43499;52.366;12.912;2023-09-08T03:51:38;101793.00;;;16.88;89.17
57668;BME280;43499;52.366;12.912;2023-09-08T03:52:39;101784.84;;;16.85;89.40
57668;BME280;43499;52.366;12.912;2023-09-08T03:53:42;101789.91;;;16.82;88.95
57668;BME280;43499;52.366;12.912;2023-09-08T03:54:43;101784.28;;;16.77;89.55
57668;BME280;43499;52.366;12.912;2023-09-08T03:55:45;101794.91;;;16.77;89.38
57668;BME280;43499;52.366;12.912;2023-09-08T03:56:49;101792.91;;;16.75;89.55
57668;BME280;43499;52.366;12.912;2023-09-08T03:57:50;101791.19;;;16.75;90.07
57668;BME280;43499;52.366;12.912;2023-09-08T03:58:52;101792.81;;;16.73;89.70
57668;BME280;43499;52.366;12.912;2023-09-08T03:59:54;101790.16;;;16.73;89.83
57668;BME280;43499;52.366;12.912;2023-09-08T04:00:55;101792.72;;;16.72;89.70
57668;BME280;43499;52.366;12.912;2023-09-08T04:01:56;101796.28;;;16.72;90.13
57668;BME280;43499;52.366;12.912;2023-09-08T04:02:57;101798.03;;;16.72;89.25
57668;BME280;43499;52.366;12.912;2023-09-08T04:03:59;101796.16;;;16.71;90.02
57668;BME280;43499;52.366;12.912;2023-09-08T04:05:00;101791.66;;;16.70;90.12
57668;BME280;43499;52.366;12.912;2023-09-08T04:06:01;101789.50;;;16.64;89.80
57668;BME280;43499;52.366;12.912;2023-09-08T04:07:03;101793.84;;;16.63;90.05
57668;BME280;43499;52.366;12.912;2023-09-08T04:08:04;101787.53;;;16.61;90.30
57668;BME280;43499;52.366;12.912;2023-09-08T04:09:06;101789.00;;;16.58;89.64
57668;BME280;43499;52.366;12.912;2023-09-08T04:10:08;101789.00;;;16.58;89.43
57668;BME280;43499;52.366;12.912;2023-09-08T04:11:11;101791.56;;;16.56;89.87
57668;BME280;43499;52.366;12.912;2023-09-08T04:12:12;101788.81;;;16.55;90.00
57668;BME280;43499;52.366;12.912;2023-09-08T04:13:14;101787.78;;;16.53;90.46
57668;BME280;43499;52.366;12.912;2023-09-08T04:14:15;101789.63;;;16.54;90.36
57668;BME280;43499;52.366;12.912;2023-09-08T04:15:16;101797.59;;;16.54;90.71
57668;BME280;43499;52.366;12.912;2023-09-08T04:16:18;101788.47;;;16.50;90.04
57668;BME280;43499;52.366;12.912;2023-09-08T04:17:19;101784.06;;;16.50;90.48
57668;BME280;43499;52.366;12.912;2023-09-08T04:18:20;101788.59;;;16.52;90.16
57668;BME280;43499;52.366;12.912;2023-09-08T04:19:22;101784.06;;;16.50;89.21
57668;BME280;43499;52.366;12.912;2023-09-08T04:20:24;101791.00;;;16.48;89.59
57668;BME280;43499;52.366;12.912;2023-09-08T04:21:26;101801.59;;;16.48;89.88
57668;BME280;43499;52.366;12.912;2023-09-08T04:22:28;101795.41;;;16.48;90.00
57668;BME280;43499;52.366;12.912;2023-09-08T04:23:29;101800.56;;;16.46;89.32
57668;BME280;43499;52.366;12.912;2023-09-08T04:24:35;101793.22;;;16.42;89.14
57668;BME280;43499;52.366;12.912;2023-09-08T04:25:36;101802.88;;;16.42;89.81
57668;BME280;43499;52.366;12.912;2023-09-08T04:26:37;101801.03;;;16.41;89.86
57668;BME280;43499;52.366;12.912;2023-09-08T04:27:39;101792.06;;;16.39;89.88
57668;BME280;43499;52.366;12.912;2023-09-08T04:28:41;101799.09;;;16.38;90.21
57668;BME280;43499;52.366;12.912;2023-09-08T04:29:42;101803.47;;;16.38;90.08
57668;BME280;43499;52.366;12.912;2023-09-08T04:30:43;101795.53;;;16.38;90.21
57668;BME280;43499;52.366;12.912;2023-09-08T04:31:44;101798.84;;;16.35;90.34
57668;BME280;43499;52.366;12.912;2023-09-08T04:32:46;101803.25;;;16.34;90.27
57668;BME280;43499;52.366;12.912;2023-09-08T04:33:47;101804.16;;;16.35;90.06
57668;BME280;43499;52.366;12.912;2023-09-08T04:34:48;101797.13;;;16.35;90.18
57668;BME280;43499;52.366;12.912;2023-09-08T04:35:50;101799.78;;;16.35;90.66
57668;BME280;43499;52.366;12.912;2023-09-08T04:36:52;101803.25;;;16.34;90.06
57668;BME280;43499;52.366;12.912;2023-09-08T04:37:53;101804.75;;;16.31;90.14
57668;BME280;43499;52.366;12.912;2023-09-08T04:38:54;101803.94;;;16.32;90.83
57668;BME280;43499;52.366;12.912;2023-09-08T04:39:56;101798.63;;;16.32;91.35
57668;BME280;43499;52.366;12.912;2023-09-08T04:40:57;101795.19;;;16.33;91.45
57668;BME280;43499;52.366;12.912;2023-09-08T04:41:59;101801.28;;;16.32;90.92
57668;BME280;43499;52.366;12.912;2023-09-08T04:43:01;101809.25;;;16.32;91.53
57668;BME280;43499;52.366;12.912;2023-09-08T04:44:03;101800.25;;;16.30;90.76
57668;BME280;43499;52.366;12.912;2023-09-08T04:45:05;101796.56;;;16.28;91.08
57668;BME280;43499;52.366;12.912;2023-09-08T04:46:08;101799.91;;;16.25;90.97
57668;BME280;43499;52.366;12.912;2023-09-08T04:47:09;101806.13;;;16.26;91.31
57668;BME280;43499;52.366;12.912;2023-09-08T04:48:10;101799.19;;;16.28;91.21
57668;BME280;43499;52.366;12.912;2023-09-08T04:49:12;101796.66;;;16.29;91.43
57668;BME280;43499;52.366;12.912;2023-09-08T04:50:13;101794.81;;;16.28;90.89
57668;BME280;43499;52.366;12.912;2023-09-08T04:51:15;101794.34;;;16.34;91.15
57668;BME280;43499;52.366;12.912;2023-09-08T04:52:16;101800.59;;;16.34;91.18
57668;BME280;43499;52.366;12.912;2023-09-08T04:53:18;101793.19;;;16.30;90.52
57668;BME280;43499;52.366;12.912;2023-09-08T04:54:19;101787.69;;;16.27;90.53
57668;BME280;43499;52.366;12.912;2023-09-08T04:55:22;101801.84;;;16.28;91.17
57668;BME280;43499;52.366;12.912;2023-09-08T04:56:23;101794.81;;;16.28;91.17
57668;BME280;43499;52.366;12.912;2023-09-08T04:57:25;101797.59;;;16.30;91.48
57668;BME280;43499;52.366;12.912;2023-09-08T04:58:30;101805.41;;;16.28;92.06
57668;BME280;43499;52.366;12.912;2023-09-08T04:59:31;101807.16;;;16.28;91.91
57668;BME280;43499;52.366;12.912;2023-09-08T05:00:33;101795.41;;;16.24;91.07
57668;BME280;43499;52.366;12.912;2023-09-08T05:01:35;101801.63;;;16.25;91.37
57668;BME280;43499;52.366;12.912;2023-09-08T05:02:39;101796.09;;;16.22;91.36
57668;BME280;43499;52.366;12.912;2023-09-08T05:03:41;101805.06;;;16.24;91.70
57668;BME280;43499;52.366;12.912;2023-09-08T05:04:42;101801.63;;;16.25;92.43
57668;BME280;43499;52.366;12.912;2023-09-08T05:05:45;101803.81;;;16.30;91.48
57668;BME280;43499;52.366;12.912;2023-09-08T05:06:46;101805.41;;;16.28;91.97
57668;BME280;43499;52.366;12.912;2023-09-08T05:07:48;101800.00;;;16.27;92.40
57668;BME280;43499;52.366;12.912;2023-09-08T05:08:49;101801.16;;;16.30;92.55
57668;BME280;43499;52.366;12.912;2023-09-08T05:09:50;101790.69;;;16.32;91.65
57668;BME280;43499;52.366;12.912;2023-09-08T05:10:52;101804.38;;;16.38;91.42
57668;BME280;43499;52.366;12.912;2023-09-08T05:11:53;101802.69;;;16.39;91.46
57668;BME280;43499;52.366;12.912;2023-09-08T05:12:54;101800.81;;;16.38;92.27
57668;BME280;43499;52.366;12.912;2023-09-08T05:13:56;101801.50;;;16.35;92.41
57668;BME280;43499;52.366;12.912;2023-09-08T05:14:59;101798.03;;;16.36;91.86
57668;BME280;43499;52.366;12.912;2023-09-08T05:16:07;101795.38;;;16.36;92.12
57668;BME280;43499;52.366;12.912;2023-09-08T05:17:14;101797.13;;;16.35;91.22
57668;BME280;43499;52.366;12.912;2023-09-08T05:18:15;101799.31;;;16.41;91.84
57668;BME280;43499;52.366;12.912;2023-09-08T05:19:17;101801.28;;;16.44;91.90
57668;BME280;43499;52.366;12.912;2023-09-08T05:20:18;101795.38;;;16.36;92.26
57668;BME280;43499;52.366;12.912;2023-09-08T05:21:19;101792.88;;;16.38;92.28